Time;durP1;ratioP1;P1;durP2;ratioP2;P2;SDS_P1;SDS_P2;PMS_P1;PMS_P2;Temp;Humidity;BMP_temperature;BMP_pressure;BME280_temperature;BME280_humidity;BME280_pressure;Samples;Min_cycle;Max_cycle;Signal;HPM_P1;HPM_P2
2022/05/04 00:01:26;;;;;;;13.70;11.87;;;11.90;99.90;;;;;;5034604;28;20206;-68
2022/05/04 00:03:51;;;;;;;13.47;11.60;;;11.80;99.90;;;;;;5034955;28;20413;-67
2022/05/04 00:06:17;;;;;;;13.27;11.23;;;11.70;99.90;;;;;;5035412;28;20206;-67
2022/05/04 00:08:42;;;;;;;16.40;12.10;;;11.80;99.90;;;;;;5035078;28;20175;-69
2022/05/04 00:11:08;;;;;;;14.90;11.80;;;11.90;99.90;;;;;;5034321;28;20952;-68
2022/05/04 00:13:34;;;;;;;14.40;11.03;;;12.00;99.90;;;;;;5017257;28;20731;-68
2022/05/04 00:16:03;;;;;;;18.53;12.23;;;12.00;99.90;;;;;;5034798;28;20281;-69
2022/05/04 00:18:29;;;;;;;16.10;11.30;;;12.00;99.90;;;;;;5034922;28;20174;-67
2022/05/04 00:20:55;;;;;;;15.27;12.70;;;11.90;99.90;;;;;;5034360;28;20905;-68
2022/05/04 00:23:20;;;;;;;14.80;12.57;;;12.00;99.90;;;;;;5034709;28;20926;-68
2022/05/04 00:25:46;;;;;;;18.10;12.13;;;11.90;99.90;;;;;;5033582;28;20418;-70
2022/05/04 00:28:11;;;;;;;16.50;12.20;;;11.90;99.90;;;;;;5034923;28;20179;-69
2022/05/04 00:30:37;;;;;;;16.93;12.87;;;11.80;99.90;;;;;;5034470;28;20662;-68
2022/05/04 00:33:02;;;;;;;14.43;12.10;;;11.60;99.90;;;;;;5034621;28;20274;-66
2022/05/04 00:35:28;;;;;;;17.17;13.90;;;11.60;99.90;;;;;;5034717;28;20241;-68
2022/05/04 00:37:53;;;;;;;17.30;13.10;;;11.60;99.90;;;;;;5034356;28;20679;-67
2022/05/04 00:40:19;;;;;;;19.20;13.43;;;11.60;99.90;;;;;;5034414;28;20179;-67
2022/05/04 00:42:44;;;;;;;16.10;13.30;;;11.40;99.90;;;;;;5034661;28;20216;-69
2022/05/04 00:45:10;;;;;;;15.03;12.83;;;11.40;99.90;;;;;;5034758;28;20179;-68
2022/05/04 00:47:36;;;;;;;17.67;12.67;;;11.40;99.90;;;;;;5034589;28;20202;-68
2022/05/04 00:50:04;;;;;;;14.30;12.17;;;11.40;99.90;;;;;;5033982;28;20452;-66
2022/05/04 00:52:32;;;;;;;14.93;12.77;;;11.40;99.90;;;;;;5016414;28;20218;-67
2022/05/04 00:54:58;;;;;;;17.20;13.83;;;11.40;99.90;;;;;;5034586;28;20414;-68
2022/05/04 01:00:09;;;;;;;15.43;13.30;;;11.20;99.90;;;;;;5034535;28;20174;-67
2022/05/04 01:02:38;;;;;;;15.20;12.83;;;11.10;99.90;;;;;;5034041;28;20476;-69
2022/05/04 01:05:05;;;;;;;17.37;13.73;;;11.10;99.90;;;;;;5016461;28;20807;-68
2022/05/04 01:07:30;;;;;;;16.00;13.00;;;11.10;99.90;;;;;;5016330;28;20421;-68
2022/05/04 01:09:56;;;;;;;17.37;14.23;;;11.00;99.90;;;;;;5033727;28;20520;-69
2022/05/04 01:12:22;;;;;;;18.27;14.70;;;11.00;99.90;;;;;;5033975;28;20259;-68
2022/05/04 01:14:48;;;;;;;16.07;13.83;;;10.90;99.90;;;;;;5016292;28;20171;-68
2022/05/04 01:17:13;;;;;;;17.93;13.87;;;10.90;99.90;;;;;;5033907;28;20594;-68
2022/05/04 01:19:39;;;;;;;15.40;13.30;;;10.90;99.90;;;;;;5033454;28;20652;-68
2022/05/04 01:22:04;;;;;;;19.97;15.00;;;11.00;99.90;;;;;;5033943;28;20262;-68
2022/05/04 01:24:30;;;;;;;16.63;13.80;;;11.10;99.90;;;;;;5033849;28;20531;-67
2022/05/04 01:26:55;;;;;;;17.03;13.27;;;11.10;99.90;;;;;;5016117;28;20179;-68
2022/05/04 01:29:21;;;;;;;15.50;12.10;;;11.10;99.90;;;;;;5033654;28;20554;-69
2022/05/04 01:31:47;;;;;;;14.77;12.40;;;11.20;99.90;;;;;;5036444;28;20178;-68
2022/05/04 01:34:12;;;;;;;17.47;14.07;;;11.20;99.90;;;;;;5035825;28;20202;-68
2022/05/04 01:36:38;;;;;;;16.63;14.00;;;11.00;99.90;;;;;;5035059;28;20207;-69
2022/05/04 01:39:03;;;;;;;18.30;13.47;;;11.00;99.90;;;;;;5035128;28;20194;-67
2022/05/04 01:44:13;;;;;;;16.33;13.40;;;10.90;99.90;;;;;;5033856;28;20178;-67
2022/05/04 01:46:38;;;;;;;18.10;14.57;;;10.90;99.90;;;;;;5033667;28;20418;-68
2022/05/04 01:49:04;;;;;;;21.37;13.40;;;10.90;99.90;;;;;;5033380;28;20249;-66
2022/05/04 01:51:29;;;;;;;19.50;15.45;;;10.80;99.90;;;;;;5032422;28;20405;-67
2022/05/04 01:53:55;;;;;;;21.23;15.60;;;10.80;99.90;;;;;;5033491;28;20214;-67
2022/05/04 01:56:20;;;;;;;17.60;14.30;;;10.70;99.90;;;;;;5033218;28;20198;-67
2022/05/04 01:58:46;;;;;;;18.17;15.60;;;10.80;99.90;;;;;;5033297;28;20178;-68
2022/05/04 02:01:12;;;;;;;18.30;14.57;;;10.80;99.90;;;;;;5032873;28;20167;-67
2022/05/04 02:03:38;;;;;;;15.43;13.73;;;10.90;99.90;;;;;;5033240;28;20186;-68
2022/05/04 02:06:04;;;;;;;16.97;12.97;;;10.90;99.90;;;;;;5033098;28;20497;-68
2022/05/04 02:08:30;;;;;;;18.47;14.37;;;10.90;99.90;;;;;;5033010;28;20170;-67
2022/05/04 02:10:55;;;;;;;19.87;15.20;;;10.70;99.90;;;;;;5014855;28;20175;-70
2022/05/04 02:13:21;;;;;;;16.13;13.80;;;10.60;99.90;;;;;;5033328;28;20191;-69
2022/05/04 02:15:46;;;;;;;20.60;15.13;;;10.50;99.90;;;;;;5033865;28;20646;-71
2022/05/04 02:18:12;;;;;;;20.70;14.20;;;10.50;99.90;;;;;;5033143;28;20705;-67
2022/05/04 02:20:37;;;;;;;18.10;14.00;;;10.40;99.90;;;;;;5033800;28;20171;-68
2022/05/04 02:23:03;;;;;;;20.10;14.03;;;10.40;99.90;;;;;;5035766;28;20193;-69
2022/05/04 02:25:29;;;;;;;20.47;14.23;;;10.40;99.90;;;;;;5034975;28;20179;-68
2022/05/04 02:27:54;;;;;;;18.60;14.53;;;10.40;99.90;;;;;;5036873;28;20179;-69
2022/05/04 02:30:20;;;;;;;18.00;14.07;;;10.40;99.90;;;;;;5038460;28;20185;-68
2022/05/04 02:32:45;;;;;;;21.20;15.80;;;10.40;99.90;;;;;;5037464;28;20663;-68
2022/05/04 02:37:55;;;;;;;18.20;15.07;;;10.20;99.90;;;;;;5041150;28;20280;-69
2022/05/04 02:40:22;;;;;;;19.83;15.10;;;10.10;99.90;;;;;;5022758;28;20434;-69
2022/05/04 02:42:47;;;;;;;18.57;13.80;;;10.10;99.90;;;;;;5040432;28;20426;-68
2022/05/04 02:45:14;;;;;;;23.83;15.43;;;10.10;99.90;;;;;;5035138;28;20416;-68
2022/05/04 02:47:40;;;;;;;17.70;14.13;;;10.00;99.90;;;;;;5015733;28;20177;-68
2022/05/04 02:50:06;;;;;;;19.13;14.77;;;10.10;99.90;;;;;;5035571;28;20455;-69
2022/05/04 02:52:32;;;;;;;19.53;15.40;;;10.10;99.90;;;;;;5038587;28;20211;-69
2022/05/04 02:54:57;;;;;;;20.10;15.07;;;10.00;99.90;;;;;;5041391;28;20463;-69
2022/05/04 02:57:23;;;;;;;20.60;14.67;;;10.00;99.90;;;;;;5042260;28;20198;-71
2022/05/04 02:59:48;;;;;;;21.83;13.40;;;9.90;99.90;;;;;;5042079;28;20182;-69
2022/05/04 03:02:29;;;;;;;19.63;13.17;;;9.90;99.90;;;;;;5043128;28;20202;-68
2022/05/04 03:05:05;;;;;;;19.37;13.90;;;9.90;99.90;;;;;;5041142;28;20167;-67
2022/05/04 03:07:31;;;;;;;17.57;13.27;;;9.90;99.90;;;;;;5033061;28;20424;-68
2022/05/04 03:09:58;;;;;;;17.27;13.77;;;9.90;99.90;;;;;;5014807;28;20418;-69
2022/05/04 03:12:24;;;;;;;20.00;13.87;;;10.00;99.90;;;;;;5032646;28;20273;-66
2022/05/04 03:14:50;;;;;;;17.37;14.40;;;10.00;99.90;;;;;;5032402;28;20460;-68
2022/05/04 03:17:17;;;;;;;18.80;14.57;;;10.00;99.90;;;;;;5032106;28;20950;-67
2022/05/04 03:19:43;;;;;;;22.30;15.93;;;10.00;99.90;;;;;;5031847;28;20551;-68
2022/05/04 03:22:08;;;;;;;21.37;14.70;;;10.00;99.90;;;;;;5032052;28;20421;-69
2022/05/04 03:24:34;;;;;;;19.77;14.50;;;10.00;99.90;;;;;;5032185;28;20492;-69
2022/05/04 03:26:59;;;;;;;21.87;14.97;;;10.00;99.90;;;;;;5031893;28;20226;-69
2022/05/04 03:29:25;;;;;;;18.33;15.37;;;10.00;99.90;;;;;;5031797;28;20175;-71
2022/05/04 03:31:50;;;;;;;17.30;15.00;;;10.10;99.90;;;;;;5014392;28;20209;-67
2022/05/04 03:34:16;;;;;;;20.07;15.63;;;10.20;99.90;;;;;;5014379;28;20177;-69
2022/05/04 03:36:42;;;;;;;18.20;14.20;;;10.30;99.90;;;;;;5031794;28;20567;-67
2022/05/04 03:39:09;;;;;;;20.00;15.40;;;10.30;99.90;;;;;;5031636;28;20182;-68
2022/05/04 03:41:35;;;;;;;21.20;15.70;;;10.30;99.90;;;;;;5031807;28;20189;-69
2022/05/04 03:44:00;;;;;;;20.23;16.20;;;10.30;99.90;;;;;;5031830;28;20417;-68
2022/05/04 03:46:28;;;;;;;20.93;15.10;;;10.30;99.90;;;;;;5031977;28;20178;-69
2022/05/04 03:48:56;;;;;;;18.60;14.63;;;10.30;99.90;;;;;;5031935;28;20675;-69
2022/05/04 03:51:22;;;;;;;18.13;13.33;;;10.30;99.90;;;;;;5031793;28;20402;-68
2022/05/04 03:53:49;;;;;;;19.70;12.73;;;10.30;99.90;;;;;;5031809;28;20848;-68
2022/05/04 03:56:16;;;;;;;17.93;13.43;;;10.20;99.90;;;;;;5014030;28;20474;-69
2022/05/04 03:58:42;;;;;;;19.50;14.33;;;10.10;99.90;;;;;;5032189;28;20416;-68
2022/05/04 04:01:07;;;;;;;17.30;13.90;;;9.90;99.90;;;;;;5035201;28;20402;-68
2022/05/04 04:03:33;;;;;;;22.90;14.10;;;9.80;99.90;;;;;;5035308;28;20428;-68
2022/05/04 04:05:59;;;;;;;18.63;14.13;;;9.80;99.90;;;;;;5035178;28;20206;-68
2022/05/04 04:08:25;;;;;;;15.90;13.30;;;9.80;99.90;;;;;;5034981;28;20225;-68
2022/05/04 04:10:51;;;;;;;19.10;14.27;;;9.80;99.90;;;;;;5037480;28;20192;-68
2022/05/04 04:13:16;;;;;;;22.43;14.93;;;9.90;99.90;;;;;;5018438;28;20851;-68
2022/05/04 04:15:43;;;;;;;19.70;15.83;;;10.00;99.90;;;;;;5035994;28;20178;-68
2022/05/04 04:18:09;;;;;;;19.90;16.20;;;10.10;99.90;;;;;;5028416;28;20245;-68
2022/05/04 04:23:19;;;;;;;21.70;14.47;;;10.30;99.90;;;;;;5052993;28;20536;-69
2022/05/04 04:25:45;;;;;;;19.63;15.20;;;10.10;99.90;;;;;;5053437;28;20531;-69
2022/05/04 04:28:10;;;;;;;22.87;15.83;;;10.20;99.90;;;;;;5054210;28;20208;-68
2022/05/04 04:30:40;;;;;;;20.80;15.70;;;10.30;99.90;;;;;;5053278;28;20213;-68
2022/05/04 04:33:06;;;;;;;21.20;14.30;;;10.30;99.90;;;;;;5053921;28;20236;-70
2022/05/04 04:35:33;;;;;;;21.30;16.00;;;10.40;99.90;;;;;;5053615;28;20452;-69
2022/05/04 04:37:59;;;;;;;20.80;14.40;;;10.40;99.90;;;;;;5052084;28;20468;-68
2022/05/04 04:40:25;;;;;;;21.37;15.60;;;10.50;99.90;;;;;;5052244;28;20528;-69
2022/05/04 04:42:50;;;;;;;19.90;13.77;;;10.60;99.90;;;;;;5053789;28;20520;-70
2022/05/04 04:45:17;;;;;;;18.10;14.33;;;10.60;99.90;;;;;;5052752;28;20364;-69
2022/05/04 04:47:44;;;;;;;18.60;14.43;;;10.70;99.90;;;;;;5052937;28;20232;-68
2022/05/04 04:50:10;;;;;;;22.00;15.20;;;10.70;99.90;;;;;;5040745;28;20838;-68
2022/05/04 04:52:35;;;;;;;17.00;13.33;;;10.50;99.90;;;;;;5033105;28;20528;-68
2022/05/04 04:55:01;;;;;;;18.30;14.10;;;10.40;99.90;;;;;;5033131;28;20177;-68
2022/05/04 04:57:26;;;;;;;18.03;14.13;;;10.40;99.90;;;;;;5016070;28;20194;-69
2022/05/04 04:59:52;;;;;;;17.20;13.80;;;10.50;99.90;;;;;;5033427;28;20171;-69
2022/05/04 05:02:17;;;;;;;19.35;16.33;;;10.60;99.90;;;;;;5032643;28;20451;-69
2022/05/04 05:04:43;;;;;;;18.97;14.63;;;10.70;99.90;;;;;;5033696;28;20170;-69
2022/05/04 05:07:08;;;;;;;19.50;13.23;;;10.70;99.90;;;;;;5033781;28;20202;-69
2022/05/04 05:09:34;;;;;;;20.23;12.90;;;10.80;99.90;;;;;;5060799;22;20171;-69
2022/05/04 05:12:00;;;;;;;15.20;12.60;;;10.90;99.90;;;;;;5072469;28;20196;-71
2022/05/04 05:17:09;;;;;;;17.47;14.07;;;11.10;99.90;;;;;;5073402;28;20601;-71
2022/05/04 05:19:35;;;;;;;17.20;12.43;;;10.90;99.90;;;;;;5072735;28;20419;-70
2022/05/04 05:22:01;;;;;;;16.73;12.17;;;10.90;99.90;;;;;;5073049;28;20173;-70
2022/05/04 05:24:26;;;;;;;14.40;12.27;;;10.80;99.90;;;;;;5072921;28;20223;-69
2022/05/04 05:26:52;;;;;;;22.30;12.57;;;10.70;99.90;;;;;;5072923;28;20180;-71
2022/05/04 05:29:17;;;;;;;28.17;13.53;;;10.80;99.90;;;;;;5072746;28;20172;-71
2022/05/04 05:31:43;;;;;;;23.00;13.70;;;10.80;99.90;;;;;;5072862;28;20193;-71
2022/05/04 05:34:08;;;;;;;15.40;12.70;;;10.60;99.90;;;;;;5072997;28;20271;-71
2022/05/04 05:36:34;;;;;;;19.63;14.07;;;10.60;99.90;;;;;;5072182;28;20292;-72
2022/05/04 05:38:59;;;;;;;25.27;13.83;;;10.70;99.90;;;;;;5073133;28;20643;-71
2022/05/04 05:41:25;;;;;;;27.23;13.93;;;10.80;99.90;;;;;;5072197;28;20573;-71
2022/05/04 05:43:52;;;;;;;18.47;13.30;;;10.90;99.90;;;;;;5073073;28;20169;-71
2022/05/04 05:46:18;;;;;;;18.00;13.67;;;10.90;99.90;;;;;;5065234;28;20210;-71
2022/05/04 05:48:43;;;;;;;18.97;13.60;;;10.90;99.90;;;;;;5070082;28;20983;-70
2022/05/04 05:51:09;;;;;;;21.50;14.40;;;10.90;99.90;;;;;;5070585;28;20369;-70
2022/05/04 05:53:34;;;;;;;21.37;15.57;;;11.00;99.90;;;;;;5070819;28;20220;-70
2022/05/04 05:56:00;;;;;;;21.87;14.70;;;11.20;99.90;;;;;;5070592;28;20589;-70
2022/05/04 05:58:25;;;;;;;19.90;14.30;;;11.30;99.90;;;;;;5070386;28;20276;-69
2022/05/04 06:00:52;;;;;;;16.53;13.13;;;11.30;99.90;;;;;;5069750;28;20709;-71
2022/05/04 06:03:18;;;;;;;19.80;14.90;;;11.40;99.90;;;;;;5071265;28;20879;-72
2022/05/04 06:05:43;;;;;;;22.27;15.37;;;11.50;99.90;;;;;;5070842;28;20538;-71
2022/05/04 06:08:09;;;;;;;16.90;14.07;;;11.50;99.90;;;;;;5070335;28;20796;-71
2022/05/04 06:10:38;;;;;;;16.57;13.10;;;11.50;99.90;;;;;;5069607;28;20558;-71
2022/05/04 06:13:05;;;;;;;22.63;13.77;;;11.50;99.90;;;;;;5070844;28;20506;-70
2022/05/04 06:15:30;;;;;;;18.50;14.77;;;11.50;99.90;;;;;;5069471;28;20530;-71
2022/05/04 06:17:56;;;;;;;14.90;13.27;;;11.50;99.90;;;;;;5070507;28;20614;-71
2022/05/04 06:20:23;;;;;;;17.50;13.10;;;11.40;99.90;;;;;;5070354;28;20196;-71
2022/05/04 06:22:49;;;;;;;19.30;14.00;;;11.30;99.90;;;;;;5054258;28;20218;-71
2022/05/04 06:25:15;;;;;;;16.30;13.10;;;11.10;99.90;;;;;;5070425;28;20497;-69
2022/05/04 06:27:40;;;;;;;17.50;14.37;;;11.10;99.90;;;;;;5069506;28;20440;-68
2022/05/04 06:35:35;;;;;;;17.03;13.27;;;11.20;99.90;;;;;;5049843;28;20432;-69
2022/05/04 06:38:00;;;;;;;17.00;14.30;;;11.40;99.90;;;;;;5074413;28;20454;-69
2022/05/04 06:40:26;;;;;;;20.20;14.50;;;11.60;99.90;;;;;;5086490;28;20284;-70
2022/05/04 06:42:51;;;;;;;16.80;13.47;;;11.70;99.90;;;;;;5071820;28;20161;-69
2022/05/04 06:45:17;;;;;;;18.83;14.57;;;11.90;99.90;;;;;;5073704;28;20191;-69
2022/05/04 06:47:43;;;;;;;16.87;13.63;;;12.00;99.90;;;;;;5071419;28;20177;-70
2022/05/04 06:50:10;;;;;;;18.43;13.90;;;12.10;99.90;;;;;;5070945;28;20216;-70
2022/05/04 06:52:37;;;;;;;15.80;12.70;;;12.20;99.90;;;;;;5071161;28;20408;-70
2022/05/04 06:55:03;;;;;;;14.37;12.83;;;12.30;99.90;;;;;;5072299;28;20840;-70
2022/05/04 06:57:29;;;;;;;21.37;14.50;;;12.40;99.90;;;;;;5035329;28;20505;-70
2022/05/04 06:59:55;;;;;;;18.27;13.77;;;12.50;99.90;;;;;;5052192;28;20437;-70
2022/05/04 07:02:21;;;;;;;15.27;13.63;;;12.70;99.90;;;;;;5051306;28;20912;-71
2022/05/04 07:04:46;;;;;;;26.80;15.80;;;12.70;99.90;;;;;;5055717;28;20174;-70
2022/05/04 07:07:12;;;;;;;25.67;14.90;;;12.80;99.90;;;;;;5053348;28;20201;-70
2022/05/04 07:09:37;;;;;;;18.00;14.70;;;12.90;99.90;;;;;;5056897;28;20237;-70
2022/05/04 07:12:04;;;;;;;19.93;15.37;;;12.90;99.90;;;;;;5066834;28;20213;-69
2022/05/04 07:14:30;;;;;;;20.70;15.10;;;13.00;99.90;;;;;;5072770;28;20165;-69
2022/05/04 07:16:55;;;;;;;17.00;14.60;;;13.00;99.90;;;;;;5088764;28;20555;-68
2022/05/04 07:19:21;;;;;;;23.33;15.20;;;13.00;99.90;;;;;;5086329;28;20182;-69
2022/05/04 07:21:46;;;;;;;16.90;15.10;;;13.00;99.90;;;;;;5091416;28;20218;-68
2022/05/04 07:24:12;;;;;;;19.73;15.83;;;13.00;99.90;;;;;;5080009;28;20398;-70
2022/05/04 07:26:40;;;;;;;18.93;15.80;;;13.10;99.90;;;;;;5071307;28;20188;-71
2022/05/04 07:29:07;;;;;;;21.70;16.17;;;13.20;99.90;;;;;;5070840;28;20238;-70
2022/05/04 07:31:32;;;;;;;23.33;15.77;;;13.30;99.90;;;;;;5071054;28;20443;-70
2022/05/04 07:33:58;;;;;;;16.87;15.17;;;13.40;99.90;;;;;;5072024;28;20414;-70
2022/05/04 07:36:23;;;;;;;18.63;15.23;;;13.50;99.90;;;;;;5074554;28;20287;-70
2022/05/04 07:38:49;;;;;;;18.70;15.97;;;13.60;99.90;;;;;;5074398;28;20181;-70
2022/05/04 07:43:59;;;;;;;19.03;15.80;;;13.80;99.90;;;;;;5074606;28;20205;-69
2022/05/04 07:46:27;;;;;;;20.17;15.50;;;14.00;99.90;;;;;;5074306;28;20793;-69
2022/05/04 07:48:53;;;;;;;19.10;15.00;;;14.10;99.90;;;;;;5074099;28;20439;-70
2022/05/04 07:51:18;;;;;;;16.70;13.73;;;14.30;99.90;;;;;;5073778;28;20432;-70
2022/05/04 07:53:44;;;;;;;16.97;13.30;;;14.50;99.90;;;;;;5074103;28;20474;-70
2022/05/04 07:56:10;;;;;;;16.37;14.30;;;14.60;99.90;;;;;;5066137;28;20220;-70
2022/05/04 07:58:35;;;;;;;16.07;13.40;;;14.90;99.90;;;;;;5052946;28;20170;-69
2022/05/04 08:06:29;;;;;;;16.27;13.57;;;15.40;99.90;;;;;;5054062;28;20896;-70
2022/05/04 08:08:54;;;;;;;17.00;14.10;;;15.40;99.90;;;;;;5053969;28;20413;-69
2022/05/04 08:11:20;;;;;;;22.27;14.37;;;15.40;99.90;;;;;;5060338;28;20258;-69
2022/05/04 08:13:45;;;;;;;17.13;13.07;;;15.10;99.90;;;;;;5074047;28;20185;-69
2022/05/04 08:16:13;;;;;;;18.17;13.20;;;14.90;99.90;;;;;;5073148;28;20205;-69
2022/05/04 08:18:41;;;;;;;16.07;12.60;;;14.80;99.90;;;;;;5073756;28;20544;-69
2022/05/04 08:21:08;;;;;;;16.50;14.73;;;14.90;99.90;;;;;;5073171;28;20526;-68
2022/05/04 08:23:34;;;;;;;18.93;13.90;;;14.90;99.90;;;;;;5073750;28;20423;-69
2022/05/04 08:26:00;;;;;;;17.17;13.27;;;14.80;99.90;;;;;;5073489;28;20420;-71
2022/05/04 08:28:25;;;;;;;19.23;14.17;;;14.70;99.90;;;;;;5073695;28;20888;-70
2022/05/04 08:30:51;;;;;;;17.83;13.77;;;14.60;99.90;;;;;;5073203;28;20427;-69
2022/05/04 08:33:18;;;;;;;17.37;14.40;;;14.70;99.90;;;;;;5073577;28;20173;-69
2022/05/04 08:35:44;;;;;;;18.37;15.00;;;14.70;99.90;;;;;;5073824;28;20185;-70
2022/05/04 08:38:09;;;;;;;18.70;15.07;;;14.70;99.90;;;;;;5073077;28;20447;-69
2022/05/04 08:40:37;;;;;;;16.60;14.70;;;14.60;99.90;;;;;;5073083;28;20286;-70
2022/05/04 08:43:07;;;;;;;21.13;16.07;;;14.60;99.90;;;;;;5072091;28;20538;-70
2022/05/04 08:45:40;;;;;;;16.60;14.70;;;14.70;99.90;;;;;;5072287;28;20801;-70
2022/05/04 08:48:10;;;;;;;17.60;15.00;;;14.70;99.90;;;;;;5073226;28;20473;-69
2022/05/04 08:50:39;;;;;;;18.57;15.20;;;14.90;99.90;;;;;;5071247;28;20436;-69
2022/05/04 08:53:05;;;;;;;19.80;14.63;;;14.90;99.90;;;;;;5073338;28;20511;-70
2022/05/04 08:55:30;;;;;;;16.60;14.50;;;15.00;99.90;;;;;;5070263;28;20978;-70
2022/05/04 08:57:56;;;;;;;17.10;14.90;;;14.90;99.90;;;;;;5053337;28;20445;-69
2022/05/04 09:00:22;;;;;;;17.43;14.70;;;15.00;99.90;;;;;;5052770;28;20240;-69
2022/05/04 09:02:48;;;;;;;18.10;15.33;;;15.20;99.90;;;;;;5053010;28;20583;-70
2022/05/04 09:05:15;;;;;;;18.57;15.37;;;15.40;99.90;;;;;;5052894;28;20413;-68
2022/05/04 09:07:41;;;;;;;19.17;15.67;;;15.60;99.90;;;;;;5052967;28;20182;-69
2022/05/04 09:10:07;;;;;;;18.10;15.20;;;15.60;99.90;;;;;;5052391;28;20451;-70
2022/05/04 09:12:33;;;;;;;18.20;15.30;;;15.70;99.90;;;;;;5052802;28;20592;-70
2022/05/04 09:14:59;;;;;;;17.70;15.80;;;15.60;99.90;;;;;;5061103;28;20669;-70
2022/05/04 09:17:25;;;;;;;17.33;14.17;;;15.60;99.90;;;;;;5071752;28;20463;-70
2022/05/04 09:22:42;;;;;;;17.57;14.73;;;15.80;99.90;;;;;;5071654;28;20242;-70
2022/05/04 09:25:18;;;;;;;18.30;15.30;;;16.00;99.90;;;;;;5071574;28;20444;-70
2022/05/04 09:27:44;;;;;;;18.43;15.20;;;15.80;99.90;;;;;;5071537;28;20412;-70
2022/05/04 09:30:10;;;;;;;20.90;16.57;;;15.90;99.90;;;;;;5070572;28;20431;-70
2022/05/04 09:32:41;;;;;;;21.23;15.60;;;16.00;99.90;;;;;;5071103;28;20426;-71
2022/05/04 09:35:17;;;;;;;17.70;14.47;;;16.00;99.30;;;;;;5071243;28;20238;-70
2022/05/04 09:46:08;;;;;;;21.43;16.10;;;15.40;99.90;;;;;;5072643;28;21120;-70
2022/05/04 09:48:35;;;;;;;22.97;16.73;;;15.50;99.90;;;;;;5072635;28;20436;-70
2022/05/04 09:51:08;;;;;;;23.20;16.20;;;15.30;99.90;;;;;;5072044;28;20189;-70
2022/05/04 09:53:36;;;;;;;20.13;16.37;;;15.30;99.90;;;;;;5072861;28;20468;-70
2022/05/04 09:56:02;;;;;;;20.07;15.83;;;15.40;99.90;;;;;;5065657;28;20413;-71
2022/05/04 09:58:29;;;;;;;20.03;15.60;;;15.30;99.90;;;;;;5052347;28;20432;-71
2022/05/04 10:00:57;;;;;;;22.40;17.50;;;15.50;99.90;;;;;;5052672;28;20949;-70
2022/05/04 10:03:23;;;;;;;25.63;17.20;;;15.70;99.90;;;;;;5069966;28;20452;-71
2022/05/04 10:05:50;;;;;;;21.63;15.67;;;15.90;99.60;;;;;;5070340;28;20809;-71
2022/05/04 10:08:16;;;;;;;22.40;17.20;;;16.10;99.30;;;;;;5071102;28;20217;-71
2022/05/04 10:10:42;;;;;;;21.83;18.83;;;16.20;98.80;;;;;;5068509;28;20410;-71
2022/05/04 10:13:08;;;;;;;21.80;18.10;;;16.50;98.40;;;;;;5069783;28;20209;-70
2022/05/04 10:15:40;;;;;;;22.00;18.23;;;16.50;97.80;;;;;;5070998;28;20443;-70
2022/05/04 10:18:18;;;;;;;25.27;18.30;;;16.60;97.90;;;;;;5069812;28;20541;-70
2022/05/04 10:21:16;;;;;;;18.70;16.40;;;16.80;97.50;;;;;;5070525;28;20505;-70
2022/05/04 10:23:52;;;;;;;23.00;17.60;;;17.10;97.30;;;;;;5069531;28;20462;-71
2022/05/04 10:26:30;;;;;;;17.93;15.83;;;17.40;96.40;;;;;;5053939;28;20440;-70
2022/05/04 10:31:52;;;;;;;23.33;20.53;;;17.50;96.20;;;;;;5072319;28;20535;-69
2022/05/04 10:34:18;;;;;;;27.83;18.77;;;17.40;95.70;;;;;;5075322;28;20989;-70
2022/05/04 10:36:46;;;;;;;23.10;17.33;;;17.10;95.90;;;;;;5071277;28;20548;-69
2022/05/04 10:39:20;;;;;;;27.83;17.60;;;17.10;96.30;;;;;;5069080;28;20208;-68
2022/05/04 10:41:45;;;;;;;24.10;20.40;;;17.20;96.50;;;;;;5066611;28;20439;-71
2022/05/04 10:44:11;;;;;;;25.47;21.07;;;17.00;96.00;;;;;;5066102;28;20889;-70
2022/05/04 10:46:44;;;;;;;22.83;18.70;;;16.40;96.60;;;;;;5066472;28;20658;-70
2022/05/04 10:49:13;;;;;;;26.57;20.47;;;16.40;97.10;;;;;;5068305;28;20439;-70
2022/05/04 10:51:40;;;;;;;25.23;21.43;;;16.60;97.10;;;;;;5057837;28;20460;-70
2022/05/04 10:54:13;;;;;;;29.80;21.27;;;16.60;96.60;;;;;;5046864;28;20408;-71
2022/05/04 10:56:47;;;;;;;22.73;19.20;;;16.70;96.40;;;;;;5044869;28;20467;-71
2022/05/04 10:59:31;;;;;;;22.50;19.60;;;16.90;96.60;;;;;;5046563;28;20963;-71
2022/05/04 11:02:06;;;;;;;22.92;20.52;;;17.10;95.90;;;;;;5062253;28;20410;-71
2022/05/04 11:04:32;;;;;;;23.70;20.07;;;17.10;96.00;;;;;;5066580;28;20245;-71
2022/05/04 11:06:58;;;;;;;22.73;20.33;;;17.30;95.90;;;;;;5066684;28;20431;-71
2022/05/04 11:09:29;;;;;;;24.40;19.90;;;17.40;95.50;;;;;;5069417;28;20946;-70
2022/05/04 11:11:57;;;;;;;23.90;19.80;;;17.10;95.50;;;;;;5072304;28;20665;-72
2022/05/04 11:14:23;;;;;;;23.50;19.33;;;17.00;95.90;;;;;;5072770;28;20420;-70
2022/05/04 11:16:51;;;;;;;25.27;19.57;;;17.00;96.00;;;;;;5072888;28;20451;-71
2022/05/04 11:19:17;;;;;;;24.10;20.63;;;17.10;95.90;;;;;;5071823;28;20931;-71
2022/05/04 11:21:43;;;;;;;24.83;21.60;;;17.20;95.60;;;;;;5072564;28;20438;-71
2022/05/04 11:24:11;;;;;;;23.97;21.20;;;17.30;95.30;;;;;;5071568;28;20423;-72
2022/05/04 11:26:50;;;;;;;28.50;22.63;;;17.30;95.30;;;;;;5071984;28;20446;-70
2022/05/04 11:29:19;;;;;;;29.60;24.10;;;17.10;95.40;;;;;;5072175;28;20408;-71
2022/05/04 11:32:05;;;;;;;26.33;22.90;;;16.90;95.60;;;;;;5070782;28;20436;-70
2022/05/04 11:34:40;;;;;;;26.63;23.37;;;16.90;95.80;;;;;;5071760;28;20499;-70
2022/05/04 11:37:11;;;;;;;29.30;24.53;;;16.90;95.80;;;;;;5066430;28;20471;-73
2022/05/04 11:39:38;;;;;;;29.57;26.37;;;17.20;95.60;;;;;;5051724;28;20420;-70
2022/05/04 11:42:07;;;;;;;26.43;23.53;;;17.40;95.20;;;;;;5051863;28;20512;-71
2022/05/04 11:44:34;;;;;;;28.47;25.23;;;17.60;95.00;;;;;;5052039;28;20780;-71
2022/05/04 11:47:01;;;;;;;29.27;24.00;;;17.60;94.80;;;;;;5051917;28;20516;-71
2022/05/04 11:49:29;;;;;;;29.17;24.17;;;17.50;94.90;;;;;;5068896;28;20714;-71
2022/05/04 11:51:56;;;;;;;28.60;22.70;;;17.20;94.90;;;;;;5071908;28;20422;-71
2022/05/04 11:54:21;;;;;;;33.53;24.60;;;17.20;95.30;;;;;;5072935;28;20419;-72
2022/05/04 11:56:47;;;;;;;28.50;25.60;;;17.40;95.20;;;;;;5071764;28;20434;-71
2022/05/04 11:59:13;;;;;;;26.20;23.60;;;17.50;95.00;;;;;;5071397;28;20173;-71
2022/05/04 12:01:40;;;;;;;28.47;25.47;;;17.70;94.60;;;;;;5071346;28;20203;-72
2022/05/04 12:04:08;;;;;;;28.37;25.40;;;17.70;94.30;;;;;;5071336;28;20420;-71
2022/05/04 12:06:35;;;;;;;29.00;26.00;;;17.60;94.50;;;;;;5071704;28;20411;-71
2022/05/04 12:09:03;;;;;;;27.70;24.47;;;17.50;94.40;;;;;;5071585;28;20412;-71
2022/05/04 12:11:29;;;;;;;27.50;24.20;;;17.50;94.60;;;;;;5070985;28;20455;-71
2022/05/04 12:13:59;;;;;;;27.27;24.40;;;17.70;94.40;;;;;;5071564;28;20835;-72
2022/05/04 12:16:25;;;;;;;28.20;25.30;;;17.90;94.10;;;;;;5071211;28;20503;-72
2022/05/04 12:18:51;;;;;;;28.60;25.60;;;17.90;94.00;;;;;;5070874;28;20419;-71
2022/05/04 12:21:22;;;;;;;27.33;24.43;;;17.80;93.70;;;;;;5071124;28;20432;-70
2022/05/04 12:23:50;;;;;;;28.43;25.60;;;17.60;93.70;;;;;;5071389;28;20820;-71
2022/05/04 12:26:16;;;;;;;29.03;24.97;;;17.50;94.00;;;;;;5070676;28;20424;-71
2022/05/04 12:28:44;;;;;;;26.97;24.37;;;17.20;94.00;;;;;;5071248;28;20416;-72
2022/05/04 12:33:57;;;;;;;25.77;23.27;;;17.10;94.50;;;;;;5071141;28;20438;-72
2022/05/04 12:36:24;;;;;;;24.10;21.77;;;17.20;94.30;;;;;;5071186;28;21055;-72
2022/05/04 12:38:52;;;;;;;25.70;23.00;;;17.40;94.00;;;;;;5070639;28;20424;-72
2022/05/04 12:41:24;;;;;;;26.30;23.60;;;17.60;93.70;;;;;;5070246;28;20952;-72
2022/05/04 12:43:51;;;;;;;24.60;22.20;;;17.80;93.40;;;;;;5071072;28;20668;-73
2022/05/04 12:46:18;;;;;;;23.83;21.57;;;18.00;93.00;;;;;;5071058;28;20416;-73
2022/05/04 12:48:48;;;;;;;26.33;23.70;;;18.20;93.00;;;;;;5070612;28;20497;-70
2022/05/04 12:51:16;;;;;;;23.50;21.40;;;18.10;92.50;;;;;;5070999;28;20469;-70
2022/05/04 12:53:44;;;;;;;23.30;21.00;;;18.10;92.10;;;;;;5087748;22;20731;-68
2022/05/04 12:58:54;;;;;;;26.30;22.67;;;18.20;91.00;;;;;;5034348;28;20471;-71
2022/05/04 13:01:24;;;;;;;23.47;21.07;;;17.80;91.40;;;;;;5033857;28;20915;-68
2022/05/04 13:03:50;;;;;;;20.90;18.90;;;17.50;91.80;;;;;;5034082;28;20198;-67
2022/05/04 13:06:17;;;;;;;21.97;19.33;;;17.40;91.40;;;;;;5034284;28;20410;-69
2022/05/04 13:08:43;;;;;;;21.93;19.70;;;17.30;91.60;;;;;;5034079;28;20416;-70
2022/05/04 13:11:08;;;;;;;20.67;18.23;;;17.40;91.60;;;;;;5028943;28;20418;-70
2022/05/04 13:13:34;;;;;;;21.20;19.07;;;17.60;91.60;;;;;;5013778;28;20242;-70